createdAt,value
2022-11-18T00:00:45.544Z,39.20
2022-11-18T00:01:45.793Z,40.30
2022-11-18T00:02:45.879Z,38.80
2022-11-18T00:03:46.010Z,40.80
2022-11-18T00:04:46.156Z,39.40
2022-11-18T00:05:46.292Z,40.70
2022-11-18T00:06:46.429Z,39.50
2022-11-18T00:07:46.552Z,41.00
2022-11-18T00:08:46.692Z,43.10
2022-11-18T00:09:46.866Z,44.40
2022-11-18T00:10:47.113Z,42.60
2022-11-18T00:11:47.132Z,40.10
2022-11-18T00:12:47.271Z,39.80
2022-11-18T00:13:47.420Z,41.40
2022-11-18T00:14:47.541Z,42.00
2022-11-18T00:15:47.680Z,40.10
2022-11-18T00:16:47.813Z,40.20
2022-11-18T00:17:47.957Z,42.10
2022-11-18T00:18:48.124Z,39.70
2022-11-18T00:19:48.320Z,40.60
2022-11-18T00:20:48.448Z,41.60
2022-11-18T00:21:48.590Z,40.60
2022-11-18T00:22:48.707Z,43.40
2022-11-18T00:23:48.881Z,41.50
2022-11-18T00:24:48.998Z,42.60
2022-11-18T00:25:49.127Z,41.40
2022-11-18T00:26:49.294Z,41.40
2022-11-18T00:27:49.443Z,40.40
2022-11-18T00:28:49.566Z,41.60
2022-11-18T00:29:49.775Z,41.20
2022-11-18T00:30:49.906Z,40.60
2022-11-18T00:31:50.581Z,41.40
2022-11-18T00:32:50.142Z,40.20
2022-11-18T00:33:50.273Z,41.40
2022-11-18T00:34:50.411Z,41.20
2022-11-18T00:35:50.555Z,41.70
2022-11-18T00:36:50.682Z,41.50
2022-11-18T00:37:50.846Z,41.90
2022-11-18T00:38:50.977Z,42.40
2022-11-18T00:39:51.135Z,40.10
2022-11-18T00:40:51.266Z,41.00
2022-11-18T00:41:51.424Z,41.60
2022-11-18T00:42:51.560Z,40.40
2022-11-18T00:43:51.708Z,41.20
2022-11-18T00:44:51.860Z,42.10
2022-11-18T00:45:52.007Z,41.40
2022-11-18T00:46:52.152Z,41.20
2022-11-18T00:47:52.282Z,41.60
2022-11-18T00:48:52.417Z,41.70
2022-11-18T00:49:52.598Z,39.80
2022-11-18T00:50:52.729Z,40.70
2022-11-18T00:51:52.869Z,40.70
2022-11-18T00:52:53.027Z,40.20
2022-11-18T00:53:53.161Z,41.00
2022-11-18T00:54:53.291Z,39.00
2022-11-18T00:55:53.429Z,38.50
2022-11-18T00:56:53.555Z,38.80
2022-11-18T00:57:53.719Z,38.30
2022-11-18T00:58:53.845Z,36.40
2022-11-18T00:59:54.009Z,37.20
2022-11-18T01:00:54.144Z,36.60
2022-11-18T01:01:54.351Z,36.70
2022-11-18T01:02:54.529Z,35.90
2022-11-18T01:03:54.651Z,35.40
2022-11-18T01:04:54.788Z,34.50
2022-11-18T01:05:54.907Z,35.10
2022-11-18T01:06:55.113Z,34.60
2022-11-18T01:07:55.159Z,34.10
2022-11-18T01:08:55.305Z,34.40
2022-11-18T01:09:55.620Z,34.10
2022-11-18T01:10:55.632Z,33.20
2022-11-18T01:11:55.762Z,33.50
2022-11-18T01:12:55.892Z,32.50
2022-11-18T01:13:56.025Z,33.30
2022-11-18T01:14:56.755Z,32.60
2022-11-18T01:15:56.337Z,33.00
2022-11-18T01:16:56.477Z,32.70
2022-11-18T01:17:56.609Z,32.20
2022-11-18T01:18:56.758Z,32.40
2022-11-18T01:19:57.019Z,31.50
2022-11-18T01:20:57.031Z,32.00
2022-11-18T01:21:57.186Z,32.80
2022-11-18T01:22:57.321Z,31.60
2022-11-18T01:23:57.519Z,31.80
2022-11-18T01:24:57.703Z,30.10
2022-11-18T01:25:57.876Z,31.10
2022-11-18T01:26:58.029Z,30.90
2022-11-18T01:27:58.203Z,30.70
2022-11-18T01:28:58.366Z,30.20
2022-11-18T01:29:58.552Z,31.90
2022-11-18T01:30:58.708Z,30.80
2022-11-18T01:32:23.515Z,30.10
2022-11-18T01:33:00.097Z,30.40
2022-11-18T01:33:59.237Z,30.70
2022-11-18T01:34:59.417Z,30.60
2022-11-18T01:35:59.563Z,30.00
2022-11-18T01:36:59.728Z,28.90
2022-11-18T01:37:59.880Z,29.80
2022-11-18T01:39:00.071Z,29.20
2022-11-18T01:40:00.230Z,29.10
2022-11-18T01:41:00.393Z,29.30
2022-11-18T01:42:00.587Z,30.20
2022-11-18T01:43:00.751Z,28.70
2022-11-18T01:44:00.919Z,28.10
2022-11-18T01:45:01.136Z,29.20
2022-11-18T01:46:01.286Z,27.50
2022-11-18T01:47:01.458Z,29.30
2022-11-18T01:48:01.627Z,27.50
2022-11-18T01:49:01.821Z,27.70
2022-11-18T01:50:01.987Z,29.10
2022-11-18T01:51:02.145Z,27.10
2022-11-18T01:52:02.320Z,26.80
2022-11-18T01:53:02.475Z,26.10
2022-11-18T01:54:02.635Z,26.30
2022-11-18T01:55:02.816Z,26.00
2022-11-18T01:56:02.965Z,26.60
2022-11-18T01:57:03.134Z,25.90
2022-11-18T01:58:03.298Z,25.80
2022-11-18T01:59:03.458Z,24.80
2022-11-18T02:00:03.643Z,25.90
2022-11-18T02:01:03.858Z,26.20
2022-11-18T02:02:04.104Z,26.80
2022-11-18T02:03:04.181Z,26.60
2022-11-18T02:04:04.333Z,26.40
2022-11-18T02:05:04.596Z,27.30
2022-11-18T02:06:04.626Z,26.20
2022-11-18T02:07:04.846Z,26.10
2022-11-18T02:08:04.904Z,28.10
2022-11-18T02:09:05.067Z,27.30
2022-11-18T02:10:05.249Z,26.10
2022-11-18T02:11:05.440Z,26.90
2022-11-18T02:12:05.651Z,27.60
2022-11-18T02:13:05.798Z,28.30
2022-11-18T02:14:05.962Z,28.80
2022-11-18T02:15:06.179Z,28.10
2022-11-18T02:16:06.334Z,29.60
2022-11-18T02:17:06.503Z,28.40
2022-11-18T02:18:06.656Z,28.30
2022-11-18T02:19:06.822Z,29.30
2022-11-18T02:20:07.036Z,29.30
2022-11-18T02:21:07.192Z,28.90
2022-11-18T02:22:07.360Z,29.50
2022-11-18T02:23:07.637Z,29.00
2022-11-18T02:24:07.707Z,29.40
2022-11-18T02:25:07.900Z,29.40
2022-11-18T02:26:08.061Z,30.00
2022-11-18T02:27:08.235Z,29.60
2022-11-18T02:28:08.399Z,29.10
2022-11-18T02:29:08.564Z,29.90
2022-11-18T02:30:08.754Z,29.60
2022-11-18T02:31:08.963Z,29.40
2022-11-18T02:32:09.115Z,29.70
2022-11-18T02:33:09.285Z,30.10
2022-11-18T02:34:09.450Z,30.50
2022-11-18T02:35:09.626Z,30.00
2022-11-18T02:36:09.912Z,30.80
2022-11-18T02:37:09.977Z,31.00
2022-11-18T02:38:10.137Z,30.70
2022-11-18T02:39:10.295Z,30.30
2022-11-18T02:40:10.464Z,30.20
2022-11-18T02:41:10.633Z,30.90
2022-11-18T02:42:10.803Z,30.40
2022-11-18T02:43:10.958Z,30.50
2022-11-18T02:44:11.091Z,30.70
2022-11-18T02:45:11.256Z,30.50
2022-11-18T02:46:11.390Z,31.10
2022-11-18T02:47:11.539Z,31.00
2022-11-18T02:48:11.687Z,30.30
2022-11-18T02:49:11.833Z,30.60
2022-11-18T02:50:11.988Z,30.20
2022-11-18T02:51:12.141Z,30.30
2022-11-18T02:52:12.273Z,30.30
2022-11-18T02:53:12.515Z,30.30
2022-11-18T02:54:12.570Z,29.50
2022-11-18T02:55:12.746Z,29.60
2022-11-18T02:56:12.904Z,29.30
2022-11-18T02:57:13.047Z,30.50
2022-11-18T02:58:13.184Z,29.80
2022-11-18T02:59:13.834Z,30.20
2022-11-18T03:00:13.543Z,30.40
2022-11-18T03:01:13.743Z,29.70
2022-11-18T03:02:13.870Z,29.60
2022-11-18T03:03:14.000Z,29.50
2022-11-18T03:04:14.137Z,28.50
2022-11-18T03:05:14.293Z,30.60
2022-11-18T03:06:14.436Z,29.20
2022-11-18T03:07:14.643Z,30.20
2022-11-18T03:08:14.680Z,29.40
2022-11-18T03:09:15.052Z,28.80
2022-11-18T03:10:15.029Z,29.70
2022-11-18T03:11:15.164Z,28.30
2022-11-18T03:12:15.339Z,30.10
2022-11-18T03:13:15.478Z,29.80
2022-11-18T03:14:15.650Z,29.70
2022-11-18T03:15:15.827Z,29.50
2022-11-18T03:16:15.971Z,30.90
2022-11-18T03:17:16.127Z,30.60
2022-11-18T03:18:16.272Z,30.60
2022-11-18T03:19:16.778Z,30.30
2022-11-18T03:20:16.609Z,31.10
2022-11-18T03:21:16.750Z,31.40
2022-11-18T03:22:16.898Z,31.20
2022-11-18T03:23:17.123Z,31.00
2022-11-18T03:24:17.266Z,31.80
2022-11-18T03:25:17.448Z,32.00
2022-11-18T03:26:17.594Z,31.60
2022-11-18T03:27:17.744Z,31.90
2022-11-18T03:28:17.892Z,32.70
2022-11-18T03:29:18.268Z,33.40
2022-11-18T03:30:18.242Z,31.70
2022-11-18T03:31:18.434Z,32.00
2022-11-18T03:32:18.568Z,32.70
2022-11-18T03:33:18.714Z,32.50
2022-11-18T03:34:18.857Z,32.70
2022-11-18T03:35:19.022Z,33.70
2022-11-18T03:36:19.162Z,32.90
2022-11-18T03:37:19.322Z,32.80
2022-11-18T03:38:19.469Z,32.50
2022-11-18T03:39:19.805Z,33.20
2022-11-18T03:40:19.811Z,32.00
2022-11-18T03:41:19.957Z,32.80
2022-11-18T03:42:20.097Z,32.80
2022-11-18T03:43:20.253Z,32.60
2022-11-18T03:44:20.401Z,32.90
2022-11-18T03:45:20.559Z,32.30
2022-11-18T03:46:20.718Z,33.50
2022-11-18T03:47:20.878Z,32.80
2022-11-18T03:48:21.030Z,33.60
2022-11-18T03:49:21.181Z,32.90
2022-11-18T03:50:21.421Z,33.50
2022-11-18T03:51:21.502Z,32.40
2022-11-18T03:52:21.644Z,33.10
2022-11-18T03:53:21.788Z,33.00
2022-11-18T03:54:22.775Z,33.40
2022-11-18T03:55:22.165Z,33.40
2022-11-18T03:56:22.307Z,33.10
2022-11-18T03:57:22.448Z,33.70
2022-11-18T03:58:22.654Z,33.80
2022-11-18T03:59:22.808Z,33.80
2022-11-18T04:00:22.981Z,33.60
2022-11-18T04:01:23.200Z,33.80
2022-11-18T04:02:23.231Z,34.10
2022-11-18T04:03:23.389Z,34.10
2022-11-18T04:04:23.512Z,34.40
2022-11-18T04:05:23.681Z,34.10
2022-11-18T04:06:23.844Z,33.30
2022-11-18T04:07:24.054Z,34.20
2022-11-18T04:08:24.128Z,35.30
2022-11-18T04:09:24.280Z,34.90
2022-11-18T04:10:24.441Z,35.00
2022-11-18T04:11:24.600Z,35.20
2022-11-18T04:12:24.756Z,35.90
2022-11-18T04:13:24.912Z,35.20
2022-11-18T04:14:25.053Z,35.70
2022-11-18T04:15:25.234Z,35.80
2022-11-18T04:16:25.367Z,35.30
2022-11-18T04:17:25.528Z,34.60
2022-11-18T04:18:25.683Z,34.50
2022-11-18T04:19:25.876Z,35.80
2022-11-18T04:20:26.076Z,36.70
2022-11-18T04:21:26.247Z,37.10
2022-11-18T04:22:26.410Z,38.00
2022-11-18T04:23:26.578Z,35.00
2022-11-18T04:24:26.715Z,35.10
2022-11-18T04:25:27.414Z,36.50
2022-11-18T04:26:27.010Z,35.90
2022-11-18T04:27:27.163Z,36.60
2022-11-18T04:28:27.312Z,36.50
2022-11-18T04:29:27.468Z,36.90
2022-11-18T04:30:27.636Z,36.50
2022-11-18T04:31:27.792Z,36.60
2022-11-18T04:32:27.941Z,36.60
2022-11-18T04:33:28.622Z,38.20
2022-11-18T04:34:28.344Z,39.10
2022-11-18T04:35:28.489Z,38.80
2022-11-18T04:36:28.652Z,38.70
2022-11-18T04:37:28.820Z,39.40
2022-11-18T04:38:28.967Z,40.10
2022-11-18T04:39:29.139Z,40.20
2022-11-18T04:40:29.311Z,39.50
2022-11-18T04:41:29.509Z,40.30
2022-11-18T04:42:29.665Z,40.90
2022-11-18T04:43:29.829Z,40.80
2022-11-18T04:44:29.987Z,40.90
2022-11-18T04:45:30.179Z,42.00
2022-11-18T04:46:30.338Z,40.60
2022-11-18T04:47:30.508Z,40.80
2022-11-18T04:48:31.526Z,41.00
2022-11-18T04:49:30.875Z,40.50
2022-11-18T04:50:31.047Z,39.70
2022-11-18T04:51:31.223Z,39.90
2022-11-18T04:52:31.380Z,41.70
2022-11-18T04:53:31.547Z,41.60
2022-11-18T04:54:31.888Z,41.90
2022-11-18T04:55:31.840Z,41.30
2022-11-18T04:56:31.994Z,41.90
2022-11-18T04:57:32.183Z,40.90
2022-11-18T04:58:32.348Z,40.90
2022-11-18T04:59:32.516Z,41.60
2022-11-18T05:00:32.691Z,41.50
2022-11-18T05:01:32.981Z,42.30
2022-11-18T05:02:33.090Z,42.90
2022-11-18T05:03:33.292Z,43.50
2022-11-18T05:04:33.735Z,43.90
2022-11-18T05:05:33.724Z,44.00
2022-11-18T05:06:33.929Z,45.50
2022-11-18T05:07:34.158Z,45.20
2022-11-18T05:08:34.245Z,46.40
2022-11-18T05:09:34.418Z,46.70
2022-11-18T05:10:34.580Z,46.80
2022-11-18T05:11:34.768Z,46.90
2022-11-18T05:12:34.935Z,46.40
2022-11-18T05:13:35.102Z,47.60
2022-11-18T05:14:35.270Z,48.00
2022-11-18T05:15:35.445Z,48.20
2022-11-18T05:16:35.617Z,45.90
2022-11-18T05:17:35.795Z,47.30
2022-11-18T05:18:35.955Z,46.40
2022-11-18T05:19:39.636Z,47.40
2022-11-18T05:20:41.405Z,47.90
2022-11-18T05:21:36.557Z,47.20
2022-11-18T05:22:36.747Z,47.90
2022-11-18T05:23:36.912Z,48.50
2022-11-18T05:24:37.085Z,48.90
2022-11-18T05:25:37.283Z,50.10
2022-11-18T05:26:37.475Z,49.50
2022-11-18T05:27:37.657Z,49.30
2022-11-18T05:28:37.826Z,48.60
2022-11-18T05:29:38.009Z,50.60
2022-11-18T05:30:38.199Z,50.10
2022-11-18T05:31:38.381Z,50.00
2022-11-18T05:32:38.730Z,48.60
2022-11-18T05:33:38.712Z,50.20
2022-11-18T05:34:38.871Z,50.00
2022-11-18T05:35:39.080Z,50.50
2022-11-18T05:36:39.245Z,52.10
2022-11-18T05:37:39.466Z,51.50
2022-11-18T05:38:39.619Z,51.00
2022-11-18T05:39:39.804Z,52.40
2022-11-18T05:40:40.004Z,51.30
2022-11-18T05:41:40.187Z,50.60
2022-11-18T05:42:40.356Z,51.10
2022-11-18T05:43:40.551Z,49.20
2022-11-18T05:44:40.767Z,49.20
2022-11-18T05:45:41.010Z,49.00
2022-11-18T05:46:41.073Z,49.40
2022-11-18T05:47:41.282Z,49.80
2022-11-18T05:48:41.472Z,47.20
2022-11-18T05:49:41.664Z,46.50
2022-11-18T05:50:41.854Z,47.00
2022-11-18T05:51:42.032Z,47.10
2022-11-18T05:52:42.233Z,45.90
2022-11-18T05:53:42.424Z,45.10
2022-11-18T05:54:42.621Z,45.00
2022-11-18T05:55:42.838Z,43.50
2022-11-18T05:56:43.051Z,45.30
2022-11-18T05:57:43.370Z,44.10
2022-11-18T05:58:43.467Z,43.70
2022-11-18T05:59:43.672Z,43.80
2022-11-18T06:00:43.915Z,43.00
2022-11-18T06:01:43.980Z,41.10
2022-11-18T06:02:44.759Z,42.60
2022-11-18T06:03:44.436Z,41.60
2022-11-18T06:04:45.799Z,41.50
2022-11-18T06:05:44.711Z,40.80
2022-11-18T06:06:44.923Z,40.40
2022-11-18T06:07:45.187Z,39.50
2022-11-18T06:08:45.325Z,39.70
2022-11-18T06:09:45.526Z,40.20
2022-11-18T06:10:45.813Z,40.40
2022-11-18T06:11:45.900Z,39.90
2022-11-18T06:12:46.219Z,40.40
2022-11-18T06:13:46.309Z,40.10
2022-11-18T06:14:46.675Z,40.50
2022-11-18T06:15:46.648Z,40.90
2022-11-18T06:16:46.844Z,39.10
2022-11-18T06:17:47.025Z,38.20
2022-11-18T06:18:47.236Z,36.20
2022-11-18T06:19:47.432Z,37.10
2022-11-18T06:20:47.663Z,37.70
2022-11-18T06:21:47.851Z,36.60
2022-11-18T06:22:48.065Z,36.20
2022-11-18T06:23:48.353Z,36.80
2022-11-18T06:24:48.455Z,35.40
2022-11-18T06:25:48.677Z,36.00
2022-11-18T06:26:48.890Z,36.10
2022-11-18T06:27:49.083Z,35.60
2022-11-18T06:28:49.277Z,36.40
2022-11-18T06:29:49.501Z,34.70
2022-11-18T06:30:49.753Z,33.00
2022-11-18T06:31:49.861Z,33.40
2022-11-18T06:32:49.993Z,31.30
2022-11-18T06:33:50.064Z,30.60
2022-11-18T06:34:50.329Z,31.30
2022-11-18T06:35:50.501Z,30.40
2022-11-18T06:36:50.850Z,30.00
2022-11-18T06:37:50.710Z,29.30
2022-11-18T06:38:50.910Z,29.10
2022-11-18T06:39:51.089Z,29.90
2022-11-18T06:40:51.797Z,29.80
2022-11-18T06:41:51.425Z,29.80
2022-11-18T06:42:51.631Z,30.50
2022-11-18T06:43:51.809Z,29.20
2022-11-18T06:44:52.054Z,30.80
2022-11-18T06:45:52.130Z,29.80
2022-11-18T06:46:52.331Z,30.30
2022-11-18T06:47:52.522Z,29.50
2022-11-18T06:48:52.724Z,28.70
2022-11-18T06:49:52.924Z,29.30
2022-11-18T06:50:53.156Z,29.10
2022-11-18T06:51:53.340Z,30.50
2022-11-18T06:52:53.552Z,29.20
2022-11-18T06:53:53.737Z,29.40
2022-11-18T06:54:53.947Z,29.30
2022-11-18T06:55:54.142Z,28.40
2022-11-18T06:56:54.361Z,29.20
2022-11-18T06:57:54.570Z,28.70
2022-11-18T06:58:54.798Z,29.50
2022-11-18T07:00:00.630Z,29.00
2022-11-18T07:00:56.145Z,28.80
2022-11-18T07:01:55.296Z,30.30
2022-11-18T07:02:55.489Z,28.70
2022-11-18T07:03:55.688Z,29.40
2022-11-18T07:04:55.882Z,29.70
2022-11-18T07:05:56.059Z,30.40
2022-11-18T07:06:56.316Z,30.50
2022-11-18T07:07:56.399Z,29.50
2022-11-18T07:08:56.599Z,30.30
2022-11-18T07:09:56.775Z,30.80
2022-11-18T07:10:56.979Z,30.80
2022-11-18T07:11:57.199Z,31.30
2022-11-18T07:12:57.386Z,31.20
2022-11-18T07:13:57.574Z,31.40
2022-11-18T07:14:57.765Z,31.40
2022-11-18T07:15:57.957Z,29.70
2022-11-18T07:16:58.154Z,30.50
2022-11-18T07:17:58.335Z,32.30
2022-11-18T07:18:58.793Z,31.60
2022-11-18T07:19:58.718Z,31.60
2022-11-18T07:20:58.939Z,32.40
2022-11-18T07:21:59.119Z,31.90
2022-11-18T07:22:59.329Z,32.90
2022-11-18T07:23:59.522Z,31.20
2022-11-18T07:24:59.719Z,30.60
2022-11-18T07:25:59.911Z,32.40
2022-11-18T07:27:00.137Z,32.40
2022-11-18T07:28:00.324Z,31.60
2022-11-18T07:29:00.542Z,31.20
2022-11-18T07:30:00.733Z,31.10
2022-11-18T07:31:00.930Z,31.10
2022-11-18T07:32:01.139Z,31.50
2022-11-18T07:33:01.338Z,29.80
2022-11-18T07:34:01.522Z,29.70
2022-11-18T07:35:01.728Z,29.20
2022-11-18T07:36:03.107Z,30.60
2022-11-18T07:37:02.104Z,29.60
2022-11-18T07:38:02.290Z,29.60
2022-11-18T07:39:02.771Z,28.90
2022-11-18T07:40:02.635Z,29.00
2022-11-18T07:41:02.907Z,30.20
2022-11-18T07:42:02.987Z,28.70
2022-11-18T07:43:03.186Z,29.70
2022-11-18T07:44:03.376Z,28.90
2022-11-18T07:45:03.575Z,29.60
2022-11-18T07:46:03.768Z,29.80
2022-11-18T07:47:04.404Z,29.10
2022-11-18T07:48:04.297Z,29.70
2022-11-18T07:49:04.274Z,29.30
2022-11-18T07:50:04.486Z,30.10
2022-11-18T07:51:04.656Z,28.70
2022-11-18T07:52:04.873Z,27.80
2022-11-18T07:53:05.239Z,29.50
2022-11-18T07:54:05.203Z,28.60
2022-11-18T07:55:05.401Z,28.70
2022-11-18T07:56:05.578Z,28.40
2022-11-18T07:57:06.045Z,28.20
2022-11-18T07:58:05.884Z,27.90
2022-11-18T07:59:06.069Z,27.70
2022-11-18T08:00:06.290Z,28.50
2022-11-18T08:01:06.553Z,28.50
2022-11-18T08:02:06.705Z,28.50
2022-11-18T08:03:06.798Z,27.80
2022-11-18T08:04:06.998Z,28.10
2022-11-18T08:05:07.222Z,27.70
2022-11-18T08:06:07.393Z,27.80
2022-11-18T08:07:07.633Z,27.70
2022-11-18T08:08:07.828Z,27.80
2022-11-18T08:09:08.041Z,27.30
2022-11-18T08:10:08.227Z,27.30
2022-11-18T08:11:08.411Z,27.90
2022-11-18T08:12:08.623Z,27.40
2022-11-18T08:13:08.862Z,30.10
2022-11-18T08:14:08.935Z,31.10
2022-11-18T08:15:09.149Z,30.50
2022-11-18T08:16:09.327Z,30.10
2022-11-18T08:17:09.567Z,28.30
2022-11-18T08:18:13.635Z,28.10
2022-11-18T08:19:10.137Z,27.90
2022-11-18T08:20:10.240Z,27.60
2022-11-18T08:21:10.335Z,27.90
2022-11-18T08:22:10.529Z,27.60
2022-11-18T08:23:10.729Z,27.60
2022-11-18T08:24:10.920Z,26.40
2022-11-18T08:25:11.112Z,26.60
2022-11-18T08:26:11.289Z,27.00
2022-11-18T08:27:11.521Z,27.60
2022-11-18T08:28:11.671Z,28.10
2022-11-18T08:29:11.912Z,27.60
2022-11-18T08:30:11.861Z,27.00
2022-11-18T08:31:12.068Z,28.00
2022-11-18T08:32:12.279Z,29.70
2022-11-18T08:33:12.488Z,28.00
2022-11-18T08:34:12.653Z,28.70
2022-11-18T08:35:12.839Z,26.80
2022-11-18T08:36:13.020Z,26.40
2022-11-18T08:37:13.213Z,26.90
2022-11-18T08:38:13.402Z,26.80
2022-11-18T08:39:13.589Z,26.30
2022-11-18T08:40:13.772Z,26.50
2022-11-18T08:41:13.965Z,25.40
2022-11-18T08:42:14.154Z,24.70
2022-11-18T08:43:14.347Z,25.70
2022-11-18T08:44:14.530Z,25.20
2022-11-18T08:45:14.825Z,24.70
2022-11-18T08:46:14.897Z,24.50
2022-11-18T08:47:15.099Z,24.60
2022-11-18T08:48:15.278Z,24.90
2022-11-18T08:49:15.921Z,24.20
2022-11-18T08:50:15.675Z,24.00
2022-11-18T08:51:15.859Z,24.60
2022-11-18T08:52:16.040Z,24.90
2022-11-18T08:53:16.255Z,24.80
2022-11-18T08:54:16.432Z,24.10
2022-11-18T08:55:16.623Z,24.60
2022-11-18T08:56:16.809Z,24.50
2022-11-18T08:57:17.015Z,25.80
2022-11-18T08:58:17.195Z,24.50
2022-11-18T08:59:17.511Z,25.00
2022-11-18T09:00:17.590Z,25.30
2022-11-18T09:01:17.846Z,24.80
2022-11-18T09:02:17.976Z,24.60
2022-11-18T09:03:18.061Z,24.60
2022-11-18T09:04:18.232Z,24.80
2022-11-18T09:05:18.416Z,25.10
2022-11-18T09:06:18.597Z,24.30
2022-11-18T09:07:18.834Z,23.00
2022-11-18T09:08:18.935Z,24.40
2022-11-18T09:09:19.526Z,23.40
2022-11-18T09:10:19.249Z,24.80
2022-11-18T09:11:19.434Z,24.60
2022-11-18T09:12:19.652Z,23.80
2022-11-18T09:13:44.881Z,24.90
2022-11-18T09:15:11.979Z,25.20
2022-11-18T09:15:21.679Z,24.30
2022-11-18T09:16:24.911Z,24.20
2022-11-18T09:18:33.475Z,23.40
2022-11-18T09:19:47.107Z,23.50
2022-11-18T09:20:34.808Z,23.80
2022-11-18T09:21:39.713Z,23.60
2022-11-18T09:22:35.145Z,23.50
2022-11-18T09:23:34.335Z,23.00
2022-11-18T09:24:34.539Z,23.60
2022-11-18T09:25:34.718Z,23.40
2022-11-18T09:26:34.916Z,23.20
2022-11-18T09:27:35.101Z,23.40
2022-11-18T09:28:35.301Z,22.90
2022-11-18T09:29:35.407Z,23.50
2022-11-18T09:30:35.607Z,23.00
2022-11-18T09:31:35.790Z,23.20
2022-11-18T09:32:36.037Z,22.90
2022-11-18T09:33:36.212Z,23.90
2022-11-18T09:34:36.402Z,24.20
2022-11-18T09:35:36.581Z,24.00
2022-11-18T09:36:36.783Z,24.00
2022-11-18T09:37:36.963Z,23.90
2022-11-18T09:38:37.187Z,23.50
2022-11-18T09:39:37.512Z,24.30
2022-11-18T09:40:37.504Z,24.20
2022-11-18T09:41:37.677Z,24.30
2022-11-18T09:42:37.884Z,23.20
2022-11-18T09:43:38.064Z,23.40
2022-11-18T09:44:38.274Z,23.40
2022-11-18T09:45:38.450Z,22.70
2022-11-18T09:46:38.641Z,22.50
2022-11-18T09:47:38.828Z,21.20
2022-11-18T09:48:39.050Z,21.00
2022-11-18T09:49:39.239Z,20.60
2022-11-18T09:50:49.607Z,19.60
2022-11-18T09:51:40.550Z,19.20
2022-11-18T09:52:39.741Z,19.30
2022-11-18T09:53:39.934Z,19.20
2022-11-18T09:54:40.126Z,18.70
2022-11-18T09:55:40.309Z,19.00
2022-11-18T09:56:40.582Z,19.00
2022-11-18T09:57:40.783Z,18.80
2022-11-18T09:58:40.887Z,17.90
2022-11-18T09:59:41.057Z,18.60
2022-11-18T10:00:41.238Z,18.80
2022-11-18T10:01:41.434Z,17.90
2022-11-18T10:02:41.615Z,17.30
2022-11-18T10:03:41.787Z,18.20
2022-11-18T10:04:41.983Z,17.40
2022-11-18T10:05:42.165Z,17.50
2022-11-18T10:06:42.361Z,17.00
2022-11-18T10:07:42.620Z,16.60
2022-11-18T10:08:42.718Z,15.80
2022-11-18T10:09:42.894Z,15.10
2022-11-18T10:10:43.076Z,14.60
2022-11-18T10:11:47.545Z,14.50
2022-11-18T10:12:44.389Z,14.70
2022-11-18T10:13:43.585Z,14.30
2022-11-18T10:14:43.772Z,14.80
2022-11-18T10:15:43.956Z,14.40
2022-11-18T10:16:44.162Z,14.70
2022-11-18T10:17:44.345Z,14.60
2022-11-18T10:18:59.583Z,14.40
2022-11-18T10:19:45.681Z,14.00
2022-11-18T10:20:44.856Z,14.20
2022-11-18T10:21:45.038Z,13.20
2022-11-18T10:22:45.236Z,13.80
2022-11-18T10:23:45.419Z,13.40
2022-11-18T10:24:45.616Z,12.30
2022-11-18T10:25:45.798Z,12.20
2022-11-18T10:26:45.998Z,12.50
2022-11-18T10:27:46.203Z,12.30
2022-11-18T10:28:46.417Z,11.20
2022-11-18T10:29:46.618Z,11.80
2022-11-18T10:30:46.806Z,11.60
2022-11-18T10:31:47.954Z,11.40
2022-11-18T10:32:47.130Z,11.40
2022-11-18T10:33:47.343Z,11.70
2022-11-18T10:34:47.528Z,11.50
2022-11-18T10:35:47.732Z,11.30
2022-11-18T10:36:47.915Z,11.00
2022-11-18T10:38:06.871Z,11.40
2022-11-18T10:38:50.250Z,11.50
2022-11-18T10:39:48.468Z,11.70
2022-11-18T10:40:48.655Z,10.80
2022-11-18T10:41:48.868Z,10.80
2022-11-18T10:42:49.053Z,11.30
2022-11-18T10:43:49.263Z,10.60
2022-11-18T10:44:49.468Z,12.10
2022-11-18T10:45:49.650Z,12.10
2022-11-18T10:46:49.843Z,12.20
2022-11-18T10:47:50.029Z,11.20
2022-11-18T10:48:50.260Z,11.40
2022-11-18T10:49:50.358Z,10.90
2022-11-18T10:50:55.286Z,13.30
2022-11-18T10:51:51.676Z,13.90
2022-11-18T10:52:50.855Z,17.20
2022-11-18T10:53:51.174Z,14.60
2022-11-18T10:54:51.262Z,17.90
2022-11-18T10:55:51.457Z,18.00
2022-11-18T10:56:57.564Z,14.80
2022-11-18T10:57:52.785Z,15.80
2022-11-18T10:58:51.966Z,14.90
2022-11-18T10:59:52.172Z,15.30
2022-11-18T11:00:52.355Z,12.70
2022-11-18T11:01:52.639Z,11.40
2022-11-18T11:02:52.694Z,10.40
2022-11-18T11:03:52.919Z,10.60
2022-11-18T11:04:53.114Z,10.40
2022-11-18T11:05:53.328Z,10.10
2022-11-18T11:06:53.570Z,10.20
2022-11-18T11:08:09.082Z,9.70
2022-11-18T11:08:54.876Z,10.10
2022-11-18T11:09:54.086Z,10.40
2022-11-18T11:10:54.284Z,10.30
2022-11-18T11:11:54.483Z,10.20
2022-11-18T11:12:54.663Z,10.40
2022-11-18T11:13:54.866Z,10.30
2022-11-18T11:14:55.043Z,10.80
2022-11-18T11:15:55.232Z,10.40
2022-11-18T11:16:55.417Z,11.00
2022-11-18T11:17:55.661Z,10.60
2022-11-18T11:18:55.752Z,10.60
2022-11-18T11:19:56.002Z,10.40
2022-11-18T11:20:56.049Z,11.00
2022-11-18T11:21:56.248Z,10.90
2022-11-18T11:22:56.446Z,10.90
2022-11-18T11:23:56.667Z,11.30
2022-11-18T11:24:56.771Z,11.50
2022-11-18T11:28:58.450Z,12.30
2022-11-18T11:29:57.654Z,12.10
2022-11-18T11:30:57.824Z,11.20
2022-11-18T11:31:58.024Z,11.50
2022-11-18T11:32:58.210Z,11.60
2022-11-18T11:33:58.398Z,11.80
2022-11-18T11:34:58.602Z,11.80
2022-11-18T11:35:58.801Z,11.60
2022-11-18T11:36:58.986Z,11.60
2022-11-18T11:37:59.171Z,11.40
2022-11-18T11:39:04.331Z,12.40
2022-11-18T11:40:00.611Z,12.10
2022-11-18T11:40:59.803Z,11.50
2022-11-18T11:42:00.001Z,12.10
2022-11-18T11:43:00.189Z,11.90
2022-11-18T11:44:00.389Z,11.60
2022-11-18T11:45:00.578Z,11.70
2022-11-18T11:46:00.773Z,12.40
2022-11-18T11:47:00.951Z,12.70
2022-11-18T11:48:01.146Z,11.60
2022-11-18T11:49:01.332Z,11.30
2022-11-18T11:50:01.509Z,11.50
2022-11-18T11:51:04.810Z,12.10
2022-11-18T11:52:01.874Z,12.30
2022-11-18T11:53:02.036Z,12.10
2022-11-18T11:54:02.219Z,12.00
2022-11-18T11:55:02.386Z,12.80
2022-11-18T11:56:02.588Z,12.20
2022-11-18T11:57:02.768Z,12.60
2022-11-18T11:58:02.948Z,12.50
2022-11-18T11:59:03.104Z,11.80
2022-11-18T12:00:03.309Z,11.60
2022-11-18T12:01:03.486Z,11.80
2022-11-18T12:02:03.658Z,11.50
2022-11-18T12:03:03.919Z,11.50
2022-11-18T12:04:04.071Z,12.00
2022-11-18T12:05:04.142Z,11.80
2022-11-18T12:06:04.333Z,11.30
2022-11-18T12:07:04.530Z,11.20
2022-11-18T12:08:04.705Z,10.80
2022-11-18T12:09:04.824Z,12.80
2022-11-18T12:10:05.052Z,11.90
2022-11-18T12:11:05.244Z,11.70
2022-11-18T12:12:05.437Z,11.20
2022-11-18T12:13:05.684Z,10.90
2022-11-18T12:14:05.749Z,11.50
2022-11-18T12:15:05.933Z,11.40
2022-11-18T12:16:06.141Z,11.30
2022-11-18T12:17:06.310Z,11.50
2022-11-18T12:18:06.506Z,12.00
2022-11-18T12:19:06.687Z,11.90
2022-11-18T12:20:06.888Z,11.50
2022-11-18T12:21:07.072Z,12.30
2022-11-18T12:22:07.258Z,11.50
2022-11-18T12:23:07.413Z,11.50
2022-11-18T12:24:07.588Z,12.00
2022-11-18T12:25:07.755Z,11.40
2022-11-18T12:26:07.996Z,11.40
2022-11-18T12:27:08.066Z,10.90
2022-11-18T12:28:08.254Z,11.20
2022-11-18T12:29:08.423Z,10.80
2022-11-18T12:30:08.620Z,11.40
2022-11-18T12:31:08.877Z,10.70
2022-11-18T12:32:08.964Z,12.00
2022-11-18T12:33:09.143Z,11.00
2022-11-18T12:34:09.323Z,10.40
2022-11-18T12:35:09.494Z,11.20
2022-11-18T12:36:09.691Z,11.20
2022-11-18T12:37:09.864Z,10.80
2022-11-18T12:38:10.045Z,10.70
2022-11-18T12:39:10.208Z,10.50
2022-11-18T12:40:10.390Z,10.20
2022-11-18T12:41:10.584Z,10.30
2022-11-18T12:42:10.779Z,10.80
2022-11-18T12:43:10.959Z,10.20
2022-11-18T12:44:11.129Z,9.80
2022-11-18T12:45:11.293Z,10.00
2022-11-18T12:46:11.503Z,9.90
2022-11-18T12:47:11.681Z,10.00
2022-11-18T12:48:11.860Z,9.60
2022-11-18T12:49:12.017Z,9.40
2022-11-18T12:50:12.220Z,8.90
2022-11-18T12:51:12.338Z,10.00
2022-11-18T12:52:12.507Z,9.20
2022-11-18T12:53:12.663Z,9.00
2022-11-18T12:54:13.937Z,8.60
2022-11-18T12:55:13.031Z,8.30
2022-11-18T12:56:13.207Z,7.80
2022-11-18T12:57:13.375Z,8.40
2022-11-18T12:58:13.554Z,8.50
2022-11-18T12:59:13.737Z,8.40
2022-11-18T13:00:13.897Z,8.30